Time;durP1;ratioP1;P1;durP2;ratioP2;P2;SDS_P1;SDS_P2;PMS_P1;PMS_P2;Temp;Humidity;BMP_temperature;BMP_pressure;BME280_temperature;BME280_humidity;BME280_pressure;Samples;Min_cycle;Max_cycle;Signal;HPM_P1;HPM_P2
2023/12/03 00:00:46;;;;;;;;;;;154.10;2252.80;;;;;;4988201;28;19906;-74
2023/12/03 00:03:12;;;;;;;;;;;154.10;2252.80;;;;;;4990191;28;19917;-74
2023/12/03 00:05:38;;;;;;;;;;;153.80;2252.80;;;;;;4989711;28;19914;-74
2023/12/03 00:08:04;;;;;;;;;;;153.70;2252.80;;;;;;4974611;28;19948;-74
2023/12/03 00:10:30;;;;;;;;;;;153.90;2252.80;;;;;;4987915;28;19910;-74
2023/12/03 00:12:56;;;;;;;;;;;153.60;2252.80;;;;;;4990842;28;20370;-74
2023/12/03 00:15:22;;;;;;;;;;;153.60;2252.80;;;;;;4986967;28;20323;-74
2023/12/03 00:17:48;;;;;;;;;;;128.90;2252.80;;;;;;4993871;28;20394;-74
2023/12/03 00:20:13;;;;;;;;;;;153.70;2252.80;;;;;;4974151;28;20279;-73
2023/12/03 00:22:39;;;;;;;;;;;153.80;2252.80;;;;;;4987066;28;19921;-74
2023/12/03 00:25:06;;;;;;;;;;;153.70;2252.80;;;;;;4992514;28;19914;-74
2023/12/03 00:27:32;;;;;;;;;;;153.70;2252.80;;;;;;4988539;28;20052;-74
2023/12/03 00:29:57;;;;;;;;;;;153.70;2252.80;;;;;;4988313;28;20016;-74
2023/12/03 00:32:23;;;;;;;;;;;153.70;2252.80;;;;;;4992443;28;19916;-74
2023/12/03 00:34:49;;;;;;;;;;;153.70;2252.80;;;;;;4987513;28;19921;-74
2023/12/03 00:37:14;;;;;;;;;;;153.70;2252.80;;;;;;4992815;28;19910;-73
2023/12/03 00:39:40;;;;;;;;;;;153.70;2252.80;;;;;;4988482;28;20323;-74
2023/12/03 00:42:05;;;;;;;;;;;128.90;2252.80;;;;;;4975807;28;19916;-74
2023/12/03 00:44:31;;;;;;;;;;;128.90;2252.80;;;;;;4994162;28;20368;-74
2023/12/03 00:46:57;;;;;;;;;;;153.70;2252.80;;;;;;4994532;28;19960;-74
2023/12/03 00:49:23;;;;;;;;;;;153.70;2252.80;;;;;;4994668;28;19914;-74
2023/12/03 00:51:48;;;;;;;;;;;153.70;2252.80;;;;;;4993453;28;19909;-74
2023/12/03 00:54:14;;;;;;;;;;;153.80;2252.80;;;;;;4994393;28;19910;-74
2023/12/03 00:56:40;;;;;;;;;;;153.70;2252.80;;;;;;4994504;28;19913;-74
2023/12/03 00:59:05;;;;;;;;;;;153.60;2252.80;;;;;;4982982;28;20397;-74
2023/12/03 01:01:31;;;;;;;;;;;153.60;2252.80;;;;;;4975330;28;19913;-74
2023/12/03 01:03:56;;;;;;;;;;;128.90;2252.80;;;;;;4981959;28;19905;-74
2023/12/03 01:06:22;;;;;;;;;;;153.80;2252.80;;;;;;4994209;28;19906;-74
2023/12/03 01:08:48;;;;;;;;;;;153.70;2252.80;;;;;;4994164;28;19971;-74
2023/12/03 01:11:13;;;;;;;;;;;153.60;2252.80;;;;;;4976716;28;19905;-74
2023/12/03 01:13:39;;;;;;;;;;;153.70;2252.80;;;;;;4994228;28;19906;-74
2023/12/03 01:16:05;;;;;;;;;;;153.70;2252.80;;;;;;4994104;28;19980;-74
2023/12/03 01:18:30;;;;;;;;;;;153.70;2252.80;;;;;;4994291;28;19905;-75
2023/12/03 01:20:56;;;;;;;;;;;153.80;2252.80;;;;;;4993911;28;19949;-73
2023/12/03 01:23:21;;;;;;;;;;;153.60;2252.80;;;;;;4994093;28;20283;-74
2023/12/03 01:25:47;;;;;;;;;;;153.60;2252.80;;;;;;4993974;28;19906;-74
2023/12/03 01:28:13;;;;;;;;;;;153.70;2252.80;;;;;;4994032;28;20012;-74
2023/12/03 01:30:39;;;;;;;;;;;153.70;2252.80;;;;;;4994070;28;19905;-74
2023/12/03 01:33:04;;;;;;;;;;;153.80;2252.80;;;;;;4994042;28;19906;-74
2023/12/03 01:35:30;;;;;;;;;;;153.80;2252.80;;;;;;4993938;28;19906;-74
2023/12/03 01:37:55;;;;;;;;;;;153.90;2252.80;;;;;;4992505;28;20355;-74
2023/12/03 01:40:21;;;;;;;;;;;153.90;2252.80;;;;;;4994014;28;20352;-74
2023/12/03 01:42:47;;;;;;;;;;;153.90;2252.80;;;;;;4993897;28;19906;-74
2023/12/03 01:45:12;;;;;;;;;;;153.90;2252.80;;;;;;4976602;28;19906;-74
2023/12/03 01:47:38;;;;;;;;;;;153.80;2252.80;;;;;;4994033;28;20303;-74
2023/12/03 01:50:06;;;;;;;;;;;154.00;2252.80;;;;;;4976050;28;19925;-74
2023/12/03 01:52:32;;;;;;;;;;;153.90;2252.80;;;;;;4993902;28;20360;-74
2023/12/03 01:54:57;;;;;;;;;;;153.90;2252.80;;;;;;4993571;28;19913;-74
2023/12/03 01:57:23;;;;;;;;;;;153.90;2252.80;;;;;;4976767;28;19905;-74
2023/12/03 01:59:48;;;;;;;;;;;154.00;2252.80;;;;;;4993530;28;19912;-74
2023/12/03 02:02:14;;;;;;;;;;;153.90;2252.80;;;;;;4994925;28;19906;-74
2023/12/03 02:04:40;;;;;;;;;;;153.80;2252.80;;;;;;4997717;28;19905;-73
2023/12/03 02:07:05;;;;;;;;;;;153.80;2252.80;;;;;;4997330;28;19910;-74
2023/12/03 02:09:31;;;;;;;;;;;153.80;2252.80;;;;;;4997547;28;19922;-74
2023/12/03 02:11:57;;;;;;;;;;;153.70;2252.80;;;;;;4997327;28;19906;-74
2023/12/03 02:14:23;;;;;;;;;;;153.60;2252.80;;;;;;4997337;28;19905;-74
2023/12/03 02:16:48;;;;;;;;;;;153.60;2252.80;;;;;;4997337;28;19905;-74
2023/12/03 02:19:14;;;;;;;;;;;153.70;2252.80;;;;;;4997444;28;20044;-74
2023/12/03 02:21:40;;;;;;;;;;;153.70;2252.80;;;;;;4996945;28;20059;-74
2023/12/03 02:24:06;;;;;;;;;;;153.70;2252.80;;;;;;4997274;28;19925;-74
2023/12/03 02:26:31;;;;;;;;;;;153.70;2252.80;;;;;;4979599;28;19917;-74
2023/12/03 02:28:57;;;;;;;;;;;128.90;2252.80;;;;;;4979533;28;20371;-74
2023/12/03 02:31:23;;;;;;;;;;;153.70;2252.80;;;;;;4996923;28;19925;-74
2023/12/03 02:34:15;;;;;;;;;;;128.90;2252.80;;;;;;4997187;28;19916;-73
2023/12/03 02:36:40;;;;;;;;;;;128.90;2252.80;;;;;;4992867;28;19965;-74
2023/12/03 02:39:06;;;;;;;;;;;153.70;2252.80;;;;;;4996804;28;19906;-74
2023/12/03 02:41:31;;;;;;;;;;;153.60;2252.80;;;;;;4979511;28;20369;-75
2023/12/03 02:43:57;;;;;;;;;;;153.70;2252.80;;;;;;4996746;28;19996;-74
2023/12/03 02:46:23;;;;;;;;;;;153.90;2252.80;;;;;;4997053;28;19993;-74
2023/12/03 02:48:49;;;;;;;;;;;153.60;2252.80;;;;;;4996687;28;20310;-74
2023/12/03 02:51:14;;;;;;;;;;;128.90;2252.80;;;;;;4979197;28;19913;-74
2023/12/03 02:53:40;;;;;;;;;;;153.70;2252.80;;;;;;4996620;28;19917;-74
2023/12/03 02:56:06;;;;;;;;;;;153.60;2252.80;;;;;;4979401;28;19906;-74
2023/12/03 02:58:32;;;;;;;;;;;153.70;2252.80;;;;;;4996507;28;19913;-74
2023/12/03 03:00:57;;;;;;;;;;;128.90;2252.80;;;;;;4996679;28;20366;-74
2023/12/03 03:03:23;;;;;;;;;;;153.60;2252.80;;;;;;4996489;28;19932;-73
2023/12/03 03:05:48;;;;;;;;;;;153.70;2252.80;;;;;;4996597;28;19906;-74
2023/12/03 03:08:14;;;;;;;;;;;153.60;2252.80;;;;;;4996076;28;19920;-74
2023/12/03 03:10:40;;;;;;;;;;;128.90;2252.80;;;;;;4996741;28;19929;-73
2023/12/03 03:13:05;;;;;;;;;;;128.90;2252.80;;;;;;4995454;28;19909;-74
2023/12/03 03:15:31;;;;;;;;;;;128.70;2252.80;;;;;;4995747;28;19912;-74
2023/12/03 03:17:56;;;;;;;;;;;128.90;2252.80;;;;;;4978924;28;19920;-74
2023/12/03 03:20:22;;;;;;;;;;;128.90;2252.80;;;;;;4996255;28;19913;-74
2023/12/03 03:22:48;;;;;;;;;;;128.80;2252.80;;;;;;4995895;28;19932;-73
2023/12/03 03:25:15;;;;;;;;;;;153.60;2252.80;;;;;;4996150;28;20331;-74
2023/12/03 03:27:40;;;;;;;;;;;128.90;2252.80;;;;;;4996324;28;19905;-73
2023/12/03 03:30:07;;;;;;;;;;;128.90;2252.80;;;;;;4995958;28;20287;-74
2023/12/03 03:32:32;;;;;;;;;;;153.60;2252.80;;;;;;4995963;28;19905;-74
2023/12/03 03:34:58;;;;;;;;;;;128.70;2252.80;;;;;;4995888;28;20398;-74
2023/12/03 03:37:24;;;;;;;;;;;128.60;2252.80;;;;;;4995757;28;19905;-74
2023/12/03 03:39:49;;;;;;;;;;;128.70;2252.80;;;;;;4995808;28;19906;-74
2023/12/03 03:42:15;;;;;;;;;;;128.70;2252.80;;;;;;4977465;28;20398;-74
2023/12/03 03:44:40;;;;;;;;;;;128.70;2252.80;;;;;;4995755;28;19906;-74
2023/12/03 03:47:07;;;;;;;;;;;128.70;2252.80;;;;;;4995656;28;19970;-74
2023/12/03 03:49:33;;;;;;;;;;;128.60;2252.80;;;;;;4995615;28;19920;-74
2023/12/03 03:51:58;;;;;;;;;;;128.80;2252.80;;;;;;4995556;28;19909;-74
2023/12/03 03:54:24;;;;;;;;;;;128.80;2252.80;;;;;;4995593;28;19906;-74
2023/12/03 03:56:49;;;;;;;;;;;128.70;2252.80;;;;;;4995430;28;19913;-73
2023/12/03 03:59:15;;;;;;;;;;;128.70;2252.80;;;;;;4995395;28;19910;-74
2023/12/03 04:01:41;;;;;;;;;;;128.90;2252.80;;;;;;4995178;28;19905;-74
2023/12/03 04:04:07;;;;;;;;;;;128.80;2252.80;;;;;;4995582;28;19906;-74
2023/12/03 04:06:36;;;;;;;;;;;128.70;2252.80;;;;;;4978064;28;19933;-74
2023/12/03 04:09:02;;;;;;;;;;;128.60;2252.80;;;;;;4995112;28;19914;-74
2023/12/03 04:11:27;;;;;;;;;;;128.50;2252.80;;;;;;4977681;28;20417;-74
2023/12/03 04:13:53;;;;;;;;;;;128.40;2252.80;;;;;;4977856;28;19955;-74
2023/12/03 04:16:22;;;;;;;;;;;128.40;2252.80;;;;;;4995287;28;19906;-74
2023/12/03 04:18:48;;;;;;;;;;;128.50;2252.80;;;;;;4995185;28;19958;-74
2023/12/03 04:21:15;;;;;;;;;;;128.60;2252.80;;;;;;4994824;28;19981;-74
2023/12/03 04:23:40;;;;;;;;;;;128.60;2252.80;;;;;;4995111;28;19929;-73
2023/12/03 04:26:09;;;;;;;;;;;128.30;2252.80;;;;;;4994522;28;19906;-74
2023/12/03 04:28:34;;;;;;;;;;;128.40;2252.80;;;;;;4994861;28;19921;-74
2023/12/03 04:31:00;;;;;;;;;;;128.30;2252.80;;;;;;4994895;28;19906;-74
2023/12/03 04:33:26;;;;;;;;;;;128.50;2252.80;;;;;;4994913;28;20344;-74
2023/12/03 04:35:51;;;;;;;;;;;128.40;2252.80;;;;;;4994643;28;19951;-74
2023/12/03 04:38:17;;;;;;;;;;;128.20;2252.80;;;;;;4994911;28;19909;-74
2023/12/03 04:40:42;;;;;;;;;;;128.00;2252.80;;;;;;4994530;28;20359;-74
2023/12/03 04:43:08;;;;;;;;;;;128.10;2252.80;;;;;;4994837;28;19910;-74
2023/12/03 04:45:34;;;;;;;;;;;128.00;2252.80;;;;;;4994413;28;19906;-74
2023/12/03 04:47:59;;;;;;;;;;;128.10;2252.80;;;;;;4994479;28;19996;-74
2023/12/03 04:50:25;;;;;;;;;;;128.20;2252.80;;;;;;4994384;28;20427;-74
2023/12/03 04:52:50;;;;;;;;;;;128.20;2252.80;;;;;;5004427;28;19909;-74
2023/12/03 04:55:16;;;;;;;;;;;128.10;2252.80;;;;;;4997830;28;19909;-73
2023/12/03 04:57:41;;;;;;;;;;;128.10;2252.80;;;;;;4994516;28;19928;-74
2023/12/03 05:00:07;;;;;;;;;;;128.10;2252.80;;;;;;4994188;28;20025;-74
2023/12/03 05:02:33;;;;;;;;;;;128.00;2252.80;;;;;;4977019;28;19906;-74
2023/12/03 05:04:58;;;;;;;;;;;103.30;2227.20;;;;;;4994270;28;19921;-74
2023/12/03 05:07:24;;;;;;;;;;;103.20;2227.20;;;;;;4994330;28;19906;-73
2023/12/03 05:09:50;;;;;;;;;;;103.20;2227.20;;;;;;4994144;28;20368;-74
2023/12/03 05:12:15;;;;;;;;;;;103.30;2227.20;;;;;;4994301;28;19917;-74
2023/12/03 05:14:41;;;;;;;;;;;103.30;2227.20;;;;;;4994279;28;19905;-74
2023/12/03 05:17:06;;;;;;;;;;;103.30;2227.20;;;;;;4994281;28;19909;-74
2023/12/03 05:19:32;;;;;;;;;;;103.20;2227.20;;;;;;4976619;28;19970;-75
2023/12/03 05:21:57;;;;;;;;;;;103.30;2227.20;;;;;;4994057;28;19921;-74
2023/12/03 05:24:23;;;;;;;;;;;128.00;2252.80;;;;;;4994076;28;19909;-74
2023/12/03 05:26:50;;;;;;;;;;;103.30;2227.20;;;;;;4994103;28;19913;-74
2023/12/03 05:29:15;;;;;;;;;;;103.30;2227.20;;;;;;4976451;28;19921;-74
2023/12/03 05:31:44;;;;;;;;;;;103.30;2227.20;;;;;;4993977;28;19906;-74
2023/12/03 05:34:10;;;;;;;;;;;103.30;2227.20;;;;;;4976500;28;19958;-74
2023/12/03 05:36:35;;;;;;;;;;;103.30;2227.20;;;;;;4995559;28;19965;-74
2023/12/03 05:39:01;;;;;;;;;;;103.30;2227.20;;;;;;5000238;28;19906;-74
2023/12/03 05:41:27;;;;;;;;;;;128.10;2252.80;;;;;;5000511;28;19906;-74
2023/12/03 05:43:52;;;;;;;;;;;103.30;2227.20;;;;;;5000548;28;19914;-74
2023/12/03 05:46:18;;;;;;;;;;;103.30;2227.20;;;;;;4982929;28;19906;-74
2023/12/03 05:48:44;;;;;;;;;;;103.30;2227.20;;;;;;5000285;28;20016;-75
2023/12/03 05:51:10;;;;;;;;;;;103.20;2227.20;;;;;;5000226;28;19916;-74
2023/12/03 05:53:35;;;;;;;;;;;103.30;2227.20;;;;;;5000385;28;19913;-74
2023/12/03 05:56:01;;;;;;;;;;;103.20;2227.20;;;;;;5000481;28;20398;-74
2023/12/03 05:58:27;;;;;;;;;;;103.30;2227.20;;;;;;5000317;28;19956;-74
2023/12/03 06:00:52;;;;;;;;;;;128.00;2252.80;;;;;;5000203;28;19913;-74
2023/12/03 06:03:18;;;;;;;;;;;103.30;2227.20;;;;;;5000295;28;19906;-74
2023/12/03 06:05:44;;;;;;;;;;;128.10;2252.80;;;;;;4982892;28;19937;-74
2023/12/03 06:08:09;;;;;;;;;;;128.20;2252.80;;;;;;4999961;28;19913;-74
2023/12/03 06:10:35;;;;;;;;;;;128.40;2252.80;;;;;;4993931;28;19914;-74
2023/12/03 06:13:00;;;;;;;;;;;128.40;2252.80;;;;;;4988358;28;20291;-74
2023/12/03 06:15:26;;;;;;;;;;;128.40;2252.80;;;;;;4997992;28;19913;-74
2023/12/03 06:17:51;;;;;;;;;;;128.40;2252.80;;;;;;4980280;28;19917;-74
2023/12/03 06:20:17;;;;;;;;;;;128.40;2252.80;;;;;;4999177;28;19973;-74
2023/12/03 06:22:43;;;;;;;;;;;128.40;2252.80;;;;;;4997981;28;19968;-74
2023/12/03 06:25:08;;;;;;;;;;;128.30;2252.80;;;;;;4992265;28;19992;-74
2023/12/03 06:27:34;;;;;;;;;;;128.40;2252.80;;;;;;4986410;28;20352;-74
2023/12/03 06:30:00;;;;;;;;;;;128.50;2252.80;;;;;;4998822;28;19936;-74
2023/12/03 06:32:25;;;;;;;;;;;128.50;2252.80;;;;;;4994844;28;19914;-74
2023/12/03 06:34:51;;;;;;;;;;;128.70;2252.80;;;;;;4993302;28;19960;-74
2023/12/03 06:37:16;;;;;;;;;;;128.60;2252.80;;;;;;4993998;28;19916;-74
2023/12/03 06:39:42;;;;;;;;;;;128.70;2252.80;;;;;;4995927;28;20331;-74
2023/12/03 06:42:07;;;;;;;;;;;128.60;2252.80;;;;;;4991634;28;19924;-74
2023/12/03 06:44:33;;;;;;;;;;;128.80;2252.80;;;;;;4993676;28;20371;-74
2023/12/03 06:46:59;;;;;;;;;;;128.80;2252.80;;;;;;4995868;28;19917;-73
2023/12/03 06:49:24;;;;;;;;;;;128.80;2252.80;;;;;;4995557;28;20287;-74
2023/12/03 06:51:51;;;;;;;;;;;128.60;2252.80;;;;;;4990450;28;19956;-74
2023/12/03 06:54:16;;;;;;;;;;;128.60;2252.80;;;;;;4989014;28;19921;-74
2023/12/03 06:56:42;;;;;;;;;;;128.50;2252.80;;;;;;4981754;28;19910;-73
2023/12/03 06:59:08;;;;;;;;;;;128.60;2252.80;;;;;;4983296;28;19918;-74
2023/12/03 07:01:33;;;;;;;;;;;128.20;2252.80;;;;;;4990858;28;19910;-74
2023/12/03 07:03:59;;;;;;;;;;;128.20;2252.80;;;;;;4988835;28;19956;-74
2023/12/03 07:06:25;;;;;;;;;;;128.20;2252.80;;;;;;4992846;28;19921;-74
2023/12/03 07:08:50;;;;;;;;;;;128.10;2252.80;;;;;;4964809;28;19965;-75
2023/12/03 07:11:16;;;;;;;;;;;128.20;2252.80;;;;;;4973698;28;20333;-75
2023/12/03 07:13:42;;;;;;;;;;;128.00;2252.80;;;;;;4992948;28;19910;-75
2023/12/03 07:16:09;;;;;;;;;;;128.00;2252.80;;;;;;4976305;28;19917;-75
2023/12/03 07:18:35;;;;;;;;;;;128.00;2252.80;;;;;;4992391;28;20291;-74
2023/12/03 07:21:00;;;;;;;;;;;128.00;2252.80;;;;;;4977861;28;19909;-76
2023/12/03 07:23:26;;;;;;;;;;;103.30;2227.20;;;;;;4985484;28;19929;-74
2023/12/03 07:25:51;;;;;;;;;;;103.30;2227.20;;;;;;4989242;28;19910;-75
2023/12/03 07:28:17;;;;;;;;;;;128.00;2252.80;;;;;;4987256;28;19910;-76
2023/12/03 07:30:43;;;;;;;;;;;128.00;2252.80;;;;;;4995019;28;19959;-76
2023/12/03 07:33:08;;;;;;;;;;;128.10;2252.80;;;;;;4992057;28;19910;-76
2023/12/03 07:35:34;;;;;;;;;;;128.20;2252.80;;;;;;4968326;28;19936;-76
2023/12/03 07:38:00;;;;;;;;;;;103.10;2227.20;;;;;;4985864;28;20282;-76
2023/12/03 07:40:25;;;;;;;;;;;128.00;2252.80;;;;;;4988114;28;19913;-74
2023/12/03 07:42:51;;;;;;;;;;;128.10;2252.80;;;;;;4988751;28;19910;-75
2023/12/03 07:45:17;;;;;;;;;;;128.20;2252.80;;;;;;4989965;28;20290;-75
2023/12/03 07:47:42;;;;;;;;;;;128.20;2252.80;;;;;;4986823;28;19933;-74
2023/12/03 07:50:08;;;;;;;;;;;128.00;2252.80;;;;;;4993563;28;19922;-75
2023/12/03 07:52:34;;;;;;;;;;;128.10;2252.80;;;;;;4974550;28;19917;-75
2023/12/03 07:54:59;;;;;;;;;;;128.10;2252.80;;;;;;4991304;28;20004;-74
2023/12/03 07:57:25;;;;;;;;;;;128.30;2252.80;;;;;;4989264;28;19979;-74
2023/12/03 07:59:51;;;;;;;;;;;128.10;2252.80;;;;;;4993601;28;19921;-75
2023/12/03 08:02:16;;;;;;;;;;;128.10;2252.80;;;;;;4992613;28;20025;-75
2023/12/03 08:04:42;;;;;;;;;;;128.00;2252.80;;;;;;4988411;28;20332;-75
2023/12/03 08:07:08;;;;;;;;;;;128.00;2252.80;;;;;;4977095;28;19933;-74
2023/12/03 08:09:33;;;;;;;;;;;128.70;2252.80;;;;;;4972968;28;20367;-74
2023/12/03 08:11:59;;;;;;;;;;;128.10;2252.80;;;;;;4989965;28;20040;-74
2023/12/03 08:14:25;;;;;;;;;;;128.20;2252.80;;;;;;4985171;28;19996;-73
2023/12/03 08:16:50;;;;;;;;;;;128.30;2252.80;;;;;;4988537;28;20452;-73
2023/12/03 08:19:16;;;;;;;;;;;128.10;2252.80;;;;;;4989598;28;19914;-74
2023/12/03 08:21:43;;;;;;;;;;;128.10;2252.80;;;;;;4991888;28;19917;-73
2023/12/03 08:24:08;;;;;;;;;;;128.50;2252.80;;;;;;4987543;28;19922;-74
2023/12/03 08:26:34;;;;;;;;;;;128.50;2252.80;;;;;;4989724;28;19917;-74
2023/12/03 08:28:59;;;;;;;;;;;128.20;2252.80;;;;;;4972359;28;19922;-75
2023/12/03 08:31:25;;;;;;;;;;;128.30;2252.80;;;;;;4981087;28;19917;-75
2023/12/03 08:33:51;;;;;;;;;;;128.40;2252.80;;;;;;4987175;28;19909;-75
2023/12/03 08:36:18;;;;;;;;;;;128.40;2252.80;;;;;;4984728;28;19961;-75
2023/12/03 08:38:43;;;;;;;;;;;128.40;2252.80;;;;;;4990278;28;19952;-75
2023/12/03 08:41:09;;;;;;;;;;;128.10;2252.80;;;;;;4990324;28;19913;-74
2023/12/03 08:43:34;;;;;;;;;;;128.10;2252.80;;;;;;4988379;28;20319;-75
2023/12/03 08:46:00;;;;;;;;;;;103.20;2227.20;;;;;;4988827;28;19925;-74
2023/12/03 08:48:26;;;;;;;;;;;103.30;2227.20;;;;;;4985347;28;19914;-76
2023/12/03 08:50:52;;;;;;;;;;;128.00;2252.80;;;;;;4987800;28;19913;-75
2023/12/03 08:53:18;;;;;;;;;;;103.20;2227.20;;;;;;4984387;28;20279;-75
2023/12/03 08:55:43;;;;;;;;;;;103.20;2227.20;;;;;;4974001;28;19956;-75
2023/12/03 08:58:09;;;;;;;;;;;128.00;2252.80;;;;;;4981037;28;19914;-75
2023/12/03 09:00:34;;;;;;;;;;;128.10;2252.80;;;;;;4969841;28;19906;-75
2023/12/03 09:03:00;;;;;;;;;;;128.30;2252.80;;;;;;4960821;28;19913;-76
2023/12/03 09:05:25;;;;;;;;;;;128.40;2252.80;;;;;;4987931;28;19968;-75
2023/12/03 09:07:51;;;;;;;;;;;128.20;2252.80;;;;;;4984988;28;19965;-75
2023/12/03 09:10:17;;;;;;;;;;;128.10;2252.80;;;;;;4990201;28;19940;-75
2023/12/03 09:12:42;;;;;;;;;;;128.20;2252.80;;;;;;4989655;28;19909;-76
2023/12/03 09:15:08;;;;;;;;;;;128.20;2252.80;;;;;;4991876;28;19914;-76
2023/12/03 09:17:34;;;;;;;;;;;128.20;2252.80;;;;;;4989519;28;19909;-76
2023/12/03 09:20:00;;;;;;;;;;;128.40;2252.80;;;;;;4974773;28;19941;-75
2023/12/03 09:22:25;;;;;;;;;;;128.40;2252.80;;;;;;4975199;28;19921;-74
2023/12/03 09:24:51;;;;;;;;;;;128.40;2252.80;;;;;;4991710;28;19913;-76
2023/12/03 09:27:17;;;;;;;;;;;128.20;2252.80;;;;;;4967301;28;19910;-74
2023/12/03 09:29:42;;;;;;;;;;;128.10;2252.80;;;;;;4989757;28;19914;-73
2023/12/03 09:32:08;;;;;;;;;;;128.30;2252.80;;;;;;4991438;28;19909;-74
2023/12/03 09:34:33;;;;;;;;;;;128.20;2252.80;;;;;;4969853;28;20008;-74
2023/12/03 09:36:59;;;;;;;;;;;128.10;2252.80;;;;;;4975771;28;19917;-73
2023/12/03 09:39:25;;;;;;;;;;;128.00;2252.80;;;;;;4991922;28;19906;-74
2023/12/03 09:41:51;;;;;;;;;;;128.00;2252.80;;;;;;4961673;28;19910;-74
2023/12/03 09:44:21;;;;;;;;;;;128.00;2252.80;;;;;;4987894;28;20383;-74
2023/12/03 09:46:49;;;;;;;;;;;103.30;2227.20;;;;;;4986181;28;19917;-74
2023/12/03 09:49:14;;;;;;;;;;;128.00;2252.80;;;;;;4993441;28;19914;-74
2023/12/03 09:51:40;;;;;;;;;;;103.30;2227.20;;;;;;4981979;28;19996;-76
2023/12/03 09:54:07;;;;;;;;;;;128.00;2252.80;;;;;;4976474;28;19960;-75
2023/12/03 09:56:33;;;;;;;;;;;128.10;2252.80;;;;;;4968968;28;19917;-74
2023/12/03 09:58:59;;;;;;;;;;;128.30;2252.80;;;;;;4990263;28;20370;-74
2023/12/03 10:01:25;;;;;;;;;;;128.40;2252.80;;;;;;4970029;28;19932;-74
2023/12/03 10:03:53;;;;;;;;;;;128.30;2252.80;;;;;;4987496;28;20410;-74
2023/12/03 10:06:22;;;;;;;;;;;128.10;2252.80;;;;;;4983509;28;19913;-74
2023/12/03 10:08:49;;;;;;;;;;;128.20;2252.80;;;;;;4976085;28;19914;-75
2023/12/03 10:11:17;;;;;;;;;;;128.30;2252.80;;;;;;4967522;28;19921;-77
2023/12/03 10:13:42;;;;;;;;;;;128.30;2252.80;;;;;;4987419;28;19916;-75
2023/12/03 10:16:10;;;;;;;;;;;128.30;2252.80;;;;;;4989148;28;19984;-75
2023/12/03 10:18:36;;;;;;;;;;;128.40;2252.80;;;;;;4970979;28;20379;-75
2023/12/03 10:21:06;;;;;;;;;;;128.40;2252.80;;;;;;4987120;28;19910;-74
2023/12/03 10:23:32;;;;;;;;;;;128.60;2252.80;;;;;;4988069;28;19985;-75
2023/12/03 10:26:08;;;;;;;;;;;128.60;2252.80;;;;;;4991863;28;19913;-74
2023/12/03 10:28:34;;;;;;;;;;;128.60;2252.80;;;;;;4991186;28;20404;-74
2023/12/03 10:31:00;;;;;;;;;;;128.80;2252.80;;;;;;4994512;28;19996;-75
2023/12/03 10:33:26;;;;;;;;;;;128.70;2252.80;;;;;;4989930;28;19945;-75
2023/12/03 10:35:52;;;;;;;;;;;128.70;2252.80;;;;;;4994538;28;19996;-74
2023/12/03 10:38:18;;;;;;;;;;;128.70;2252.80;;;;;;4991222;28;19952;-75
2023/12/03 10:40:46;;;;;;;;;;;154.20;2252.80;;;;;;4991677;28;19913;-75
2023/12/03 10:43:12;;;;;;;;;;;179.30;2252.80;;;;;;4993839;28;20478;-75
2023/12/03 10:45:38;;;;;;;;;;;179.40;2252.80;;;;;;4968444;28;19937;-75
2023/12/03 10:48:05;;;;;;;;;;;179.50;2201.60;;;;;;4988606;28;20364;-74
2023/12/03 10:50:30;;;;;;;;;;;154.30;2252.80;;;;;;4993060;28;19917;-75
2023/12/03 10:52:58;;;;;;;;;;;154.40;2252.80;;;;;;4989206;28;19941;-75
2023/12/03 10:55:24;;;;;;;;;;;179.30;2252.80;;;;;;4991979;28;19953;-74
2023/12/03 10:57:56;;;;;;;;;;;179.20;2252.80;;;;;;4993272;28;20311;-75
2023/12/03 11:00:24;;;;;;;;;;;154.50;2252.80;;;;;;4988753;28;19928;-75
2023/12/03 11:02:57;;;;;;;;;;;179.30;2252.80;;;;;;4977000;28;19948;-75
2023/12/03 11:05:29;;;;;;;;;;;154.50;2252.80;;;;;;4989748;28;20000;-74
2023/12/03 11:07:55;;;;;;;;;;;154.50;2252.80;;;;;;4987288;28;19932;-75
2023/12/03 11:10:21;;;;;;;;;;;154.30;2252.80;;;;;;4990840;28;20005;-75
2023/12/03 11:12:47;;;;;;;;;;;154.40;2252.80;;;;;;4993612;28;19949;-75
2023/12/03 11:15:13;;;;;;;;;;;154.30;2252.80;;;;;;4997430;28;19917;-75
2023/12/03 11:17:44;;;;;;;;;;;154.00;2252.80;;;;;;4991870;28;19964;-74
2023/12/03 11:20:14;;;;;;;;;;;154.20;2252.80;;;;;;4975169;28;19972;-75
2023/12/03 11:22:58;;;;;;;;;;;154.10;2252.80;;;;;;4990103;28;19925;-75
2023/12/03 11:25:27;;;;;;;;;;;154.10;2252.80;;;;;;4964764;28;19910;-75
2023/12/03 11:27:53;;;;;;;;;;;154.20;2252.80;;;;;;4990526;28;19944;-75
2023/12/03 11:30:39;;;;;;;;;;;154.10;2252.80;;;;;;4993160;28;19914;-75
2023/12/03 11:33:05;;;;;;;;;;;154.40;2252.80;;;;;;4990380;28;19910;-74
2023/12/03 11:35:31;;;;;;;;;;;179.20;2252.80;;;;;;4972406;28;19910;-75
2023/12/03 11:37:57;;;;;;;;;;;154.50;2252.80;;;;;;4967068;28;20016;-74
2023/12/03 11:40:33;;;;;;;;;;;154.30;2252.80;;;;;;4986217;28;20036;-75
2023/12/03 11:42:59;;;;;;;;;;;154.20;2252.80;;;;;;4987967;28;19917;-75
2023/12/03 11:45:25;;;;;;;;;;;153.90;2252.80;;;;;;4982281;28;19910;-75
2023/12/03 11:48:05;;;;;;;;;;;154.10;2252.80;;;;;;4969456;28;19910;-75
2023/12/03 11:50:31;;;;;;;;;;;154.00;2252.80;;;;;;4970672;28;19918;-75
2023/12/03 11:52:56;;;;;;;;;;;154.10;2252.80;;;;;;4992607;28;19918;-75
2023/12/03 11:55:22;;;;;;;;;;;154.00;2252.80;;;;;;4988259;28;19920;-75
2023/12/03 11:57:48;;;;;;;;;;;153.90;2252.80;;;;;;4992107;28;20295;-75
2023/12/03 12:00:14;;;;;;;;;;;153.70;2252.80;;;;;;4966863;28;19913;-75
2023/12/03 12:02:39;;;;;;;;;;;153.60;2252.80;;;;;;4990450;28;19909;-75
2023/12/03 12:05:05;;;;;;;;;;;153.60;2252.80;;;;;;4986339;28;19917;-75
2023/12/03 12:07:31;;;;;;;;;;;153.60;2252.80;;;;;;4984259;28;19913;-75
2023/12/03 12:09:56;;;;;;;;;;;153.60;2252.80;;;;;;4980763;28;20326;-74
2023/12/03 12:12:22;;;;;;;;;;;128.90;2252.80;;;;;;4982291;28;19910;-75
2023/12/03 12:14:49;;;;;;;;;;;128.90;2252.80;;;;;;4987901;28;19909;-75
2023/12/03 12:17:14;;;;;;;;;;;128.80;2252.80;;;;;;4990882;28;19905;-75
2023/12/03 12:19:46;;;;;;;;;;;128.80;2252.80;;;;;;4993290;28;19910;-75
2023/12/03 12:22:12;;;;;;;;;;;128.70;2252.80;;;;;;4985253;28;19918;-75
2023/12/03 12:24:37;;;;;;;;;;;128.60;2252.80;;;;;;4983415;28;20024;-75
2023/12/03 12:27:03;;;;;;;;;;;128.20;2252.80;;;;;;4990170;28;19913;-75
2023/12/03 12:29:29;;;;;;;;;;;128.40;2252.80;;;;;;4983285;28;19921;-75
2023/12/03 12:31:55;;;;;;;;;;;128.40;2252.80;;;;;;4992058;28;20000;-75
2023/12/03 12:34:23;;;;;;;;;;;128.40;2252.80;;;;;;4987318;28;20327;-76
2023/12/03 12:36:49;;;;;;;;;;;128.80;2252.80;;;;;;4973963;28;20364;-74
2023/12/03 12:39:26;;;;;;;;;;;153.80;2252.80;;;;;;4981038;28;20004;-74
2023/12/03 12:41:53;;;;;;;;;;;153.80;2252.80;;;;;;4990733;28;19910;-74
2023/12/03 12:44:19;;;;;;;;;;;153.60;2252.80;;;;;;4990308;28;19914;-74
2023/12/03 12:46:52;;;;;;;;;;;153.60;2252.80;;;;;;4988439;28;20282;-74
2023/12/03 12:49:18;;;;;;;;;;;153.60;2252.80;;;;;;4972791;28;19960;-74
2023/12/03 12:51:44;;;;;;;;;;;153.80;2252.80;;;;;;4983157;28;19941;-74
2023/12/03 12:54:09;;;;;;;;;;;153.80;2252.80;;;;;;4987665;28;19914;-74
2023/12/03 12:56:35;;;;;;;;;;;153.60;2252.80;;;;;;4987047;28;19910;-74
2023/12/03 12:59:01;;;;;;;;;;;153.60;2252.80;;;;;;4986385;28;19914;-74
2023/12/03 13:01:28;;;;;;;;;;;128.90;2252.80;;;;;;4988508;28;19910;-73
2023/12/03 13:03:54;;;;;;;;;;;153.60;2252.80;;;;;;4988169;28;19944;-74
2023/12/03 13:06:20;;;;;;;;;;;128.90;2252.80;;;;;;4989527;28;19941;-75
2023/12/03 13:08:46;;;;;;;;;;;128.90;2252.80;;;;;;4966442;28;19964;-74
2023/12/03 13:11:12;;;;;;;;;;;128.80;2252.80;;;;;;4983877;28;19957;-75
2023/12/03 13:13:37;;;;;;;;;;;128.90;2252.80;;;;;;4993971;28;19910;-74
2023/12/03 13:16:05;;;;;;;;;;;128.70;2252.80;;;;;;4986457;28;20279;-74
2023/12/03 13:18:30;;;;;;;;;;;128.60;2252.80;;;;;;4976148;28;19941;-74
2023/12/03 13:20:56;;;;;;;;;;;128.90;2252.80;;;;;;4975962;28;19914;-75
2023/12/03 13:23:22;;;;;;;;;;;128.60;2252.80;;;;;;4984774;28;20008;-74
2023/12/03 13:25:47;;;;;;;;;;;128.50;2252.80;;;;;;4974057;28;19910;-73
2023/12/03 13:28:14;;;;;;;;;;;128.60;2252.80;;;;;;4991971;28;20379;-75
2023/12/03 13:30:40;;;;;;;;;;;128.80;2252.80;;;;;;4990402;28;20000;-74
2023/12/03 13:33:06;;;;;;;;;;;128.70;2252.80;;;;;;4987719;28;19910;-74
2023/12/03 13:35:32;;;;;;;;;;;128.50;2252.80;;;;;;4985885;28;20008;-74